createdAt,value
2018-07-04T00:00:49.742Z,16.6
2018-07-04T00:01:49.062Z,16.6
2018-07-04T00:02:48.775Z,16.5
2018-07-04T00:03:47.995Z,16.5
2018-07-04T00:04:47.313Z,16.5
2018-07-04T00:05:46.743Z,16.5
2018-07-04T00:06:45.680Z,16.5
2018-07-04T00:07:45.012Z,16.6
2018-07-04T00:08:44.453Z,16.6
2018-07-04T00:09:43.772Z,16.5
2018-07-04T00:10:42.998Z,16.5
2018-07-04T00:11:42.506Z,16.5
2018-07-04T00:12:41.940Z,16.5
2018-07-04T00:13:41.275Z,16.5
2018-07-04T00:14:40.492Z,16.5
2018-07-04T00:15:39.932Z,16.5
2018-07-04T00:16:38.948Z,16.5
2018-07-04T00:17:38.276Z,16.4
2018-07-04T00:18:37.889Z,16.4
2018-07-04T00:19:37.219Z,16.4
2018-07-04T00:20:36.486Z,16.3
2018-07-04T00:21:35.841Z,16.3
2018-07-04T00:22:35.163Z,16.3
2018-07-04T00:23:34.380Z,16.2
2018-07-04T00:24:33.386Z,16.2
2018-07-04T00:25:33.373Z,16.2
2018-07-04T00:26:32.175Z,16.2
2018-07-04T00:27:31.389Z,16.2
2018-07-04T00:28:30.819Z,16.1
2018-07-04T00:29:29.927Z,16.1
2018-07-04T00:30:29.353Z,16.1
2018-07-04T00:31:28.567Z,16.1
2018-07-04T00:32:28.287Z,16.1
2018-07-04T00:33:27.613Z,16.1
2018-07-04T00:34:27.045Z,16
2018-07-04T00:35:26.375Z,16.1
2018-07-04T00:36:25.304Z,16.1
2018-07-04T00:37:24.626Z,16.1
2018-07-04T00:38:24.234Z,16.1
2018-07-04T00:39:23.067Z,16.1
2018-07-04T00:40:22.492Z,16.1
2018-07-04T00:41:21.825Z,16.1
2018-07-04T00:42:21.432Z,16.1
2018-07-04T00:43:20.700Z,16.1
2018-07-04T00:44:20.022Z,16
2018-07-04T00:45:19.455Z,16
2018-07-04T00:45:49.689Z,16
2018-07-04T00:47:17.802Z,16
2018-07-04T00:48:17.247Z,16
2018-07-04T00:49:16.692Z,16
2018-07-04T00:50:15.615Z,16
2018-07-04T00:51:14.943Z,16
2018-07-04T00:52:14.307Z,16
2018-07-04T00:53:13.743Z,16
2018-07-04T00:54:13.166Z,16
2018-07-04T00:55:12.388Z,16
2018-07-04T00:56:11.605Z,16
2018-07-04T00:57:11.029Z,16
2018-07-04T00:58:10.251Z,16
2018-07-04T00:59:09.569Z,16
2018-07-04T01:00:08.917Z,16
2018-07-04T01:01:08.243Z,16
2018-07-04T01:02:07.354Z,16
2018-07-04T01:03:06.800Z,16
2018-07-04T01:04:06.239Z,16
2018-07-04T01:04:36.370Z,16
2018-07-04T01:07:04.169Z,16
2018-07-04T01:08:03.594Z,16
2018-07-04T01:09:02.706Z,16
2018-07-04T01:10:02.136Z,16
2018-07-04T01:11:01.247Z,16
2018-07-04T01:12:00.570Z,15.9
2018-07-04T01:13:00.005Z,15.9
2018-07-04T01:13:59.342Z,15.9
2018-07-04T01:14:58.781Z,15.9
2018-07-04T01:15:57.995Z,15.9
2018-07-04T01:16:57.213Z,15.9
2018-07-04T01:17:56.655Z,15.9
2018-07-04T01:18:55.973Z,15.9
2018-07-04T01:19:55.191Z,15.9
2018-07-04T01:20:54.509Z,15.9
2018-07-04T01:21:53.840Z,15.9
2018-07-04T01:22:53.274Z,15.9
2018-07-04T01:23:52.598Z,15.9
2018-07-04T01:24:51.819Z,16
2018-07-04T01:25:51.154Z,16
2018-07-04T01:26:50.372Z,15.9
2018-07-04T01:27:49.700Z,15.9
2018-07-04T01:28:49.048Z,15.9
2018-07-04T01:29:48.272Z,16
2018-07-04T01:30:47.595Z,16
2018-07-04T01:31:17.838Z,16
2018-07-04T01:32:46.357Z,16
2018-07-04T01:33:45.571Z,16
2018-07-04T01:34:44.793Z,15.9
2018-07-04T01:35:43.904Z,15.9
2018-07-04T01:36:43.730Z,16
2018-07-04T01:37:43.051Z,15.9
2018-07-04T01:38:42.155Z,15.9
2018-07-04T01:39:41.598Z,15.9
2018-07-04T01:40:40.918Z,15.9
2018-07-04T01:41:11.556Z,15.9
2018-07-04T01:41:41.692Z,15.9
2018-07-04T01:42:12.229Z,15.9
2018-07-04T01:43:38.846Z,15.8
2018-07-04T01:44:38.166Z,15.8
2018-07-04T01:45:37.090Z,15.8
2018-07-04T01:46:36.516Z,15.7
2018-07-04T01:47:35.835Z,15.7
2018-07-04T01:48:35.054Z,15.7
2018-07-04T01:49:34.665Z,15.6
2018-07-04T01:50:33.993Z,15.6
2018-07-04T01:51:32.807Z,15.6
2018-07-04T01:52:32.633Z,15.6
2018-07-04T01:53:31.856Z,15.5
2018-07-04T01:54:31.188Z,15.5
2018-07-04T01:55:30.308Z,15.5
2018-07-04T01:56:29.417Z,15.5
2018-07-04T01:57:28.927Z,15.5
2018-07-04T01:58:28.294Z,15.5
2018-07-04T01:59:27.620Z,15.5
2018-07-04T02:00:26.847Z,15.5
2018-07-04T02:02:25.457Z,15.4
2018-07-04T02:03:24.691Z,15.4
2018-07-04T02:04:23.956Z,15.4
2018-07-04T02:05:23.293Z,15.4
2018-07-04T02:06:22.516Z,15.4
2018-07-04T02:07:21.834Z,15.4
2018-07-04T02:08:21.550Z,15.4
2018-07-04T02:09:20.476Z,15.4
2018-07-04T02:10:19.810Z,15.4
2018-07-04T02:11:19.240Z,15.3
2018-07-04T02:12:18.677Z,15.3
2018-07-04T02:13:17.992Z,15.3
2018-07-04T02:14:17.235Z,15.3
2018-07-04T02:16:15.949Z,15.3
2018-07-04T02:17:14.873Z,15.2
2018-07-04T02:18:14.195Z,15.2
2018-07-04T02:19:13.518Z,15.2
2018-07-04T02:20:12.845Z,15.2
2018-07-04T02:21:12.174Z,15.2
2018-07-04T02:22:11.598Z,15.2
2018-07-04T02:22:42.021Z,15.2
2018-07-04T02:23:12.545Z,15.1
2018-07-04T02:23:43.077Z,15.1
2018-07-04T02:24:13.712Z,15.1
2018-07-04T02:24:44.134Z,15.1
2018-07-04T02:25:14.766Z,15.1
2018-07-04T02:25:45.305Z,15.1
2018-07-04T02:27:08.276Z,15
2018-07-04T02:28:07.600Z,15
2018-07-04T02:29:06.815Z,15
2018-07-04T02:30:05.920Z,14.9
2018-07-04T02:31:05.263Z,14.9
2018-07-04T02:32:04.497Z,14.9
2018-07-04T02:33:03.834Z,14.9
2018-07-04T02:34:03.050Z,14.9
2018-07-04T02:35:02.495Z,14.9
2018-07-04T02:36:01.715Z,14.9
2018-07-04T02:37:00.848Z,14.9
2018-07-04T02:38:00.266Z,14.9
2018-07-04T02:38:59.723Z,14.8
2018-07-04T02:39:58.960Z,14.8
2018-07-04T02:40:58.302Z,14.8
2018-07-04T02:41:57.623Z,14.8
2018-07-04T02:42:57.057Z,14.8
2018-07-04T02:43:27.588Z,14.8
2018-07-04T02:44:55.848Z,14.8
2018-07-04T02:45:54.823Z,14.8
2018-07-04T02:46:54.280Z,14.8
2018-07-04T02:47:53.519Z,14.8
2018-07-04T02:48:52.843Z,14.8
2018-07-04T02:49:52.062Z,14.8
2018-07-04T02:50:51.507Z,14.8
2018-07-04T02:51:50.248Z,14.7
2018-07-04T02:52:49.696Z,14.7
2018-07-04T02:53:48.936Z,14.7
2018-07-04T02:54:48.278Z,14.6
2018-07-04T02:55:47.619Z,14.6
2018-07-04T02:56:46.963Z,14.6
2018-07-04T02:57:46.098Z,14.6
2018-07-04T02:58:45.536Z,14.5
2018-07-04T02:59:44.891Z,14.6
2018-07-04T03:00:44.153Z,14.6
2018-07-04T03:01:43.493Z,14.5
2018-07-04T03:02:42.718Z,14.5
2018-07-04T03:03:42.046Z,14.5
2018-07-04T03:04:41.502Z,14.5
2018-07-04T03:05:40.733Z,14.5
2018-07-04T03:06:39.992Z,14.5
2018-07-04T03:07:39.333Z,14.5
2018-07-04T03:08:38.679Z,14.5
2018-07-04T03:09:38.021Z,14.5
2018-07-04T03:10:36.872Z,14.5
2018-07-04T03:11:36.221Z,14.6
2018-07-04T03:12:35.450Z,14.6
2018-07-04T03:13:35.288Z,14.6
2018-07-04T03:14:34.120Z,14.6
2018-07-04T03:15:33.342Z,14.6
2018-07-04T03:16:32.684Z,14.6
2018-07-04T03:17:31.933Z,14.5
2018-07-04T03:18:31.396Z,14.5
2018-07-04T03:19:30.835Z,14.5
2018-07-04T03:20:30.076Z,14.5
2018-07-04T03:21:00.321Z,14.5
2018-07-04T03:21:30.978Z,14.5
2018-07-04T03:22:28.700Z,14.6
2018-07-04T03:23:27.938Z,14.5
2018-07-04T03:25:26.262Z,14.5
2018-07-04T03:26:25.596Z,14.5
2018-07-04T03:27:24.930Z,14.4
2018-07-04T03:28:24.151Z,14.4
2018-07-04T03:29:23.487Z,14.4
2018-07-04T03:31:22.104Z,14.4
2018-07-04T03:31:52.270Z,14.4
2018-07-04T03:32:22.826Z,14.4
2018-07-04T03:33:20.763Z,14.4
2018-07-04T03:34:19.894Z,14.3
2018-07-04T03:35:19.126Z,14.3
2018-07-04T03:36:18.462Z,14.3
2018-07-04T03:37:18.188Z,14.3
2018-07-04T03:38:17.030Z,14.3
2018-07-04T03:39:16.471Z,14.3
2018-07-04T03:40:15.805Z,14.3
2018-07-04T03:41:15.262Z,14.2
2018-07-04T03:42:14.589Z,14.2
2018-07-04T03:43:13.412Z,14.2
2018-07-04T03:44:12.845Z,14.2
2018-07-04T03:45:12.279Z,14.2
2018-07-04T03:46:11.724Z,14.1
2018-07-04T03:47:10.662Z,14.1
2018-07-04T03:48:09.986Z,14.1
2018-07-04T03:49:09.428Z,14
2018-07-04T03:50:08.657Z,14
2018-07-04T03:51:07.999Z,14
2018-07-04T03:52:06.984Z,14
2018-07-04T03:53:06.500Z,13.9
2018-07-04T03:54:05.510Z,13.9
2018-07-04T03:55:04.842Z,13.9
2018-07-04T03:56:04.287Z,13.8
2018-07-04T03:57:03.737Z,13.8
2018-07-04T03:58:02.889Z,13.8
2018-07-04T03:59:02.073Z,13.8
2018-07-04T04:00:01.515Z,13.8
2018-07-04T04:00:31.673Z,13.8
2018-07-04T04:01:02.327Z,13.8
2018-07-04T04:01:32.973Z,13.8
2018-07-04T04:02:03.513Z,13.8
2018-07-04T04:02:33.772Z,13.8
2018-07-04T04:03:04.024Z,13.7
2018-07-04T04:03:34.564Z,13.7
2018-07-04T04:04:05.206Z,13.7
2018-07-04T04:04:35.531Z,13.7
2018-07-04T04:05:57.019Z,13.7
2018-07-04T04:06:56.345Z,13.7
2018-07-04T04:07:55.677Z,13.7
2018-07-04T04:08:54.798Z,13.7
2018-07-04T04:09:54.028Z,13.7
2018-07-04T04:10:53.473Z,13.7
2018-07-04T04:11:52.912Z,13.7
2018-07-04T04:12:23.164Z,13.7
2018-07-04T04:12:53.301Z,13.7
2018-07-04T04:13:23.978Z,13.7
2018-07-04T04:13:54.596Z,13.7
2018-07-04T04:14:25.251Z,13.7
2018-07-04T04:15:49.642Z,13.7
2018-07-04T04:16:48.970Z,13.7
2018-07-04T04:17:48.300Z,13.7
2018-07-04T04:18:47.523Z,13.7
2018-07-04T04:19:46.800Z,13.7
2018-07-04T04:20:46.421Z,13.7
2018-07-04T04:21:45.357Z,13.7
2018-07-04T04:22:44.696Z,13.7
2018-07-04T04:23:43.927Z,13.7
2018-07-04T04:24:43.156Z,13.8
2018-07-04T04:25:42.491Z,13.8
2018-07-04T04:26:41.934Z,13.9
2018-07-04T04:27:41.152Z,13.9
2018-07-04T04:28:40.479Z,13.9
2018-07-04T04:29:39.407Z,14
2018-07-04T04:30:38.833Z,14
2018-07-04T04:31:38.057Z,14.1
2018-07-04T04:32:37.485Z,14.1
2018-07-04T04:33:36.722Z,14.2
2018-07-04T04:34:36.046Z,14.2
2018-07-04T04:35:35.475Z,14.4
2018-07-04T04:36:34.413Z,14.4
2018-07-04T04:37:33.743Z,14.4
2018-07-04T04:38:32.958Z,14.5
2018-07-04T04:39:32.183Z,14.5
2018-07-04T04:40:31.611Z,14.6
2018-07-04T04:41:30.936Z,14.6
2018-07-04T04:42:30.633Z,14.7
2018-07-04T04:43:29.242Z,14.7
2018-07-04T04:43:59.668Z,14.7
2018-07-04T04:45:28.233Z,14.7
2018-07-04T04:47:26.736Z,14.7
2018-07-04T04:48:25.674Z,14.7
2018-07-04T04:49:24.917Z,14.8
2018-07-04T04:50:24.142Z,14.8
2018-07-04T04:51:23.866Z,14.8
2018-07-04T04:52:22.691Z,14.8
2018-07-04T04:53:21.920Z,14.8
2018-07-04T04:53:52.452Z,14.8
2018-07-04T04:55:20.967Z,14.9
2018-07-04T04:56:19.798Z,14.9
2018-07-04T04:57:19.237Z,14.9
2018-07-04T04:58:18.460Z,14.9
2018-07-04T04:59:17.897Z,14.9
2018-07-04T05:00:17.244Z,15
2018-07-04T05:01:16.070Z,15
2018-07-04T05:02:15.528Z,15
2018-07-04T05:03:14.972Z,15
2018-07-04T05:04:14.303Z,15
2018-07-04T05:05:13.528Z,15
2018-07-04T05:07:11.751Z,15
2018-07-04T05:08:11.081Z,15.1
2018-07-04T05:09:10.512Z,15.1
2018-07-04T05:10:09.836Z,15.2
2018-07-04T05:11:09.054Z,15.2
2018-07-04T05:12:08.393Z,15.2
2018-07-04T05:13:07.829Z,15.3
2018-07-04T05:15:06.557Z,15.3
2018-07-04T05:16:05.496Z,15.3
2018-07-04T05:17:04.628Z,15.4
2018-07-04T05:18:04.075Z,15.4
2018-07-04T05:19:03.191Z,15.5
2018-07-04T05:21:02.161Z,15.5
2018-07-04T05:22:01.175Z,15.5
2018-07-04T05:23:59.474Z,15.5
2018-07-04T05:24:59.310Z,15.6
2018-07-04T05:25:58.528Z,15.6
2018-07-04T05:26:57.962Z,15.7
2018-07-04T05:27:56.893Z,15.7
2018-07-04T05:28:56.224Z,15.8
2018-07-04T05:29:55.439Z,15.9
2018-07-04T05:31:53.829Z,16.1
2018-07-04T05:32:53.264Z,16.1
2018-07-04T05:34:51.872Z,16.2
2018-07-04T05:35:51.107Z,16.3
2018-07-04T05:36:50.324Z,16.3
2018-07-04T05:37:49.946Z,16.3
2018-07-04T05:38:49.165Z,16.4
2018-07-04T05:39:19.709Z,16.4
2018-07-04T05:39:49.951Z,16.4
2018-07-04T05:40:20.489Z,16.4
2018-07-04T05:40:51.213Z,16.5
2018-07-04T05:41:21.616Z,16.5
2018-07-04T05:42:46.506Z,16.5
2018-07-04T05:43:45.484Z,16.6
2018-07-04T05:44:44.599Z,16.6
2018-07-04T05:45:44.044Z,16.7
2018-07-04T05:46:43.679Z,16.7
2018-07-04T05:47:42.932Z,16.8
2018-07-04T05:48:41.951Z,16.8
2018-07-04T05:49:12.379Z,16.8
2018-07-04T05:49:43.152Z,16.8
2018-07-04T05:50:13.407Z,16.8
2018-07-04T05:50:44.205Z,16.8
2018-07-04T05:51:14.519Z,16.8
2018-07-04T05:51:44.832Z,16.8
2018-07-04T05:52:14.967Z,16.8
2018-07-04T05:52:45.612Z,16.8
2018-07-04T05:53:16.159Z,16.8
2018-07-04T05:54:38.021Z,16.9
2018-07-04T05:55:37.353Z,16.9
2018-07-04T05:56:36.951Z,16.9
2018-07-04T05:57:35.778Z,16.9
2018-07-04T05:58:35.222Z,17
2018-07-04T05:59:34.549Z,17
2018-07-04T06:00:33.773Z,17
2018-07-04T06:01:33.099Z,17.1
2018-07-04T06:02:32.324Z,17.1
2018-07-04T06:03:31.773Z,17.2
2018-07-04T06:04:31.000Z,17.2
2018-07-04T06:05:30.331Z,17.2
2018-07-04T06:06:29.452Z,17.2
2018-07-04T06:07:28.779Z,17.2
2018-07-04T06:08:28.109Z,17.2
2018-07-04T06:09:27.333Z,17.3
2018-07-04T06:10:26.656Z,17.4
2018-07-04T06:11:25.880Z,17.4
2018-07-04T06:12:25.318Z,17.4
2018-07-04T06:13:24.647Z,17.5
2018-07-04T06:14:23.985Z,17.5
2018-07-04T06:15:23.305Z,17.5
2018-07-04T06:16:22.667Z,17.5
2018-07-04T06:17:21.895Z,17.5
2018-07-04T06:18:21.370Z,17.5
2018-07-04T06:19:20.707Z,17.6
2018-07-04T06:20:20.041Z,17.6
2018-07-04T06:20:50.186Z,17.6
2018-07-04T06:21:20.926Z,17.6
2018-07-04T06:21:51.489Z,17.6
2018-07-04T06:22:22.021Z,17.7
2018-07-04T06:22:52.572Z,17.7
2018-07-04T06:24:17.275Z,17.7
2018-07-04T06:25:16.744Z,17.8
2018-07-04T06:26:15.609Z,17.8
2018-07-04T06:27:14.961Z,17.8
2018-07-04T06:28:14.396Z,17.8
2018-07-04T06:29:13.612Z,17.9
2018-07-04T06:30:12.947Z,17.9
2018-07-04T06:31:12.267Z,18
2018-07-04T06:31:42.517Z,18
2018-07-04T06:32:12.766Z,18
2018-07-04T06:32:43.002Z,18
2018-07-04T06:33:13.255Z,18
2018-07-04T06:33:43.511Z,18
2018-07-04T06:34:13.654Z,18.1
2018-07-04T06:34:44.310Z,18.1
2018-07-04T06:35:14.450Z,18.1
2018-07-04T06:36:09.252Z,18.1
2018-07-04T06:37:08.478Z,18.2
2018-07-04T06:38:07.922Z,18.2
2018-07-04T06:39:07.387Z,18.3
2018-07-04T06:40:06.278Z,18.3
2018-07-04T06:41:05.524Z,18.4
2018-07-04T06:42:04.855Z,18.4
2018-07-04T06:43:04.583Z,18.5
2018-07-04T06:44:03.518Z,18.5
2018-07-04T06:45:03.138Z,18.6
2018-07-04T06:46:02.362Z,18.7
2018-07-04T06:47:01.477Z,18.7
2018-07-04T06:48:00.989Z,18.8
2018-07-04T06:49:00.464Z,18.9
2018-07-04T06:49:59.417Z,18.9
2018-07-04T06:50:58.750Z,19.1
2018-07-04T06:51:58.082Z,19.1
2018-07-04T06:52:57.822Z,19.2
2018-07-04T06:53:57.157Z,19.2
2018-07-04T06:54:56.098Z,19.3
2018-07-04T06:55:55.336Z,19.3
2018-07-04T06:56:55.064Z,19.3
2018-07-04T06:57:54.076Z,19.4
2018-07-04T06:58:53.559Z,19.4
2018-07-04T06:59:52.996Z,19.5
2018-07-04T07:00:52.434Z,19.5
2018-07-04T07:01:51.891Z,19.5
2018-07-04T07:02:51.060Z,19.6
2018-07-04T07:03:50.385Z,19.7
2018-07-04T07:04:49.868Z,19.8
2018-07-04T07:05:49.306Z,19.9
2018-07-04T07:06:48.426Z,19.9
2018-07-04T07:07:47.866Z,20
2018-07-04T07:08:47.197Z,20.1
2018-07-04T07:09:46.535Z,20.2
2018-07-04T07:10:45.972Z,20.2
2018-07-04T07:11:45.314Z,20.2
2018-07-04T07:12:44.641Z,20.3
2018-07-04T07:13:43.971Z,20.5
2018-07-04T07:14:43.192Z,20.5
2018-07-04T07:15:42.519Z,20.7
2018-07-04T07:16:41.858Z,20.7
2018-07-04T07:17:41.193Z,20.8
2018-07-04T07:18:40.518Z,20.9
2018-07-04T07:19:11.054Z,20.9
2018-07-04T07:19:41.692Z,20.9
2018-07-04T07:20:39.410Z,20.9
2018-07-04T07:21:38.846Z,20.9
2018-07-04T07:22:38.290Z,21
2018-07-04T07:23:37.622Z,21
2018-07-04T07:24:36.949Z,21
2018-07-04T07:25:36.396Z,21.1
2018-07-04T07:26:35.728Z,21.1
2018-07-04T07:27:35.127Z,21.2
2018-07-04T07:28:34.191Z,21.2
2018-07-04T07:29:04.428Z,21.2
2018-07-04T07:29:34.673Z,21.3
2018-07-04T07:30:05.104Z,21.3
2018-07-04T07:30:35.646Z,21.3
2018-07-04T07:31:06.080Z,21.3
2018-07-04T07:32:31.479Z,21.4
2018-07-04T07:33:31.269Z,21.4
2018-07-04T07:34:30.493Z,21.5
2018-07-04T07:35:29.718Z,21.6
2018-07-04T07:36:29.228Z,21.7
2018-07-04T07:37:28.458Z,21.7
2018-07-04T07:38:27.975Z,21.8
2018-07-04T07:39:27.189Z,21.8
2018-07-04T07:40:26.525Z,21.8
2018-07-04T07:41:26.367Z,21.8
2018-07-04T07:42:25.593Z,21.9
2018-07-04T07:43:24.932Z,22
2018-07-04T07:44:24.270Z,22.1
2018-07-04T07:45:23.885Z,22.1
2018-07-04T07:46:23.214Z,22.2
2018-07-04T07:47:22.545Z,22.2
2018-07-04T07:48:21.865Z,22.2
2018-07-04T07:49:21.083Z,22.2
2018-07-04T07:50:20.909Z,22.3
2018-07-04T07:51:19.744Z,22.3
2018-07-04T07:52:19.679Z,22.3
2018-07-04T07:53:19.005Z,22.3
2018-07-04T07:54:18.652Z,22.3
2018-07-04T07:55:17.628Z,22.3
2018-07-04T07:56:17.065Z,22.3
2018-07-04T07:57:16.437Z,22.4
2018-07-04T07:58:15.756Z,22.4
2018-07-04T07:59:15.194Z,22.5
2018-07-04T08:00:14.528Z,22.6
2018-07-04T08:00:44.962Z,22.6
2018-07-04T08:02:13.387Z,22.6
2018-07-04T08:03:12.719Z,22.6
2018-07-04T08:04:12.055Z,22.6
2018-07-04T08:05:11.381Z,22.7
2018-07-04T08:07:10.705Z,22.7
2018-07-04T08:08:10.043Z,22.9
2018-07-04T08:09:09.380Z,23
2018-07-04T08:10:08.502Z,23.1
2018-07-04T08:10:38.750Z,23.1
2018-07-04T08:11:09.390Z,23.2
2018-07-04T08:11:39.930Z,23.2
2018-07-04T08:12:10.581Z,23.3
2018-07-04T08:12:41.225Z,23.3
2018-07-04T08:13:11.340Z,23.3
2018-07-04T08:13:41.791Z,23.3
2018-07-04T08:16:05.173Z,23.3
2018-07-04T08:17:04.400Z,23.3
2018-07-04T08:18:04.127Z,23.3
2018-07-04T08:19:03.458Z,23.3
2018-07-04T08:20:02.895Z,23.4
2018-07-04T08:21:02.226Z,23.4
2018-07-04T08:23:01.021Z,23.5
2018-07-04T08:23:31.573Z,23.5
2018-07-04T08:25:00.196Z,23.5
2018-07-04T08:25:59.426Z,23.6
2018-07-04T08:26:59.040Z,23.6
2018-07-04T08:27:58.269Z,23.6
2018-07-04T08:28:57.593Z,23.6
2018-07-04T08:29:57.024Z,23.6
2018-07-04T08:30:56.750Z,23.6
2018-07-04T08:31:55.927Z,23.7
2018-07-04T08:32:55.185Z,23.8
2018-07-04T08:33:54.914Z,23.8
2018-07-04T08:34:54.640Z,23.8
2018-07-04T08:35:53.970Z,23.8
2018-07-04T08:36:53.296Z,23.8
2018-07-04T08:37:52.747Z,23.7
2018-07-04T08:38:52.307Z,23.8
2018-07-04T08:39:51.598Z,23.9
2018-07-04T08:40:50.934Z,23.9
2018-07-04T08:41:50.161Z,23.9
2018-07-04T08:42:49.895Z,23.9
2018-07-04T08:43:49.110Z,23.9
2018-07-04T08:44:49.366Z,23.9
2018-07-04T08:45:47.984Z,23.9
2018-07-04T08:46:47.822Z,24
2018-07-04T08:47:47.151Z,24
2018-07-04T08:48:46.379Z,24.3
2018-07-04T08:49:46.110Z,24.3
2018-07-04T08:50:45.730Z,24.3
2018-07-04T08:51:45.079Z,24.4
2018-07-04T08:52:44.435Z,24.4
2018-07-04T08:53:43.852Z,24.5
2018-07-04T08:54:43.292Z,24.5
2018-07-04T08:55:42.529Z,24.5
2018-07-04T08:56:42.265Z,24.5
2018-07-04T08:57:41.984Z,24.5
2018-07-04T08:58:41.538Z,24.5
2018-07-04T08:59:40.656Z,24.5
2018-07-04T09:00:40.091Z,24.6
2018-07-04T09:01:39.416Z,24.6
2018-07-04T09:02:39.034Z,24.9
2018-07-04T09:03:38.548Z,24.9
2018-07-04T09:04:37.876Z,24.9
2018-07-04T09:05:37.797Z,24.9
2018-07-04T09:06:36.826Z,24.9
2018-07-04T09:07:36.165Z,25
2018-07-04T09:08:36.011Z,25.1
2018-07-04T09:09:35.234Z,25.2
2018-07-04T09:10:05.896Z,25.2
2018-07-04T09:10:36.419Z,25.2
2018-07-04T09:11:06.554Z,25.2
2018-07-04T09:12:33.473Z,25.4
2018-07-04T09:13:33.203Z,25.5
2018-07-04T09:14:32.925Z,25.5
2018-07-04T09:15:31.931Z,25.5
2018-07-04T09:16:31.448Z,25.5
2018-07-04T09:17:31.287Z,25.4
2018-07-04T09:18:30.626Z,25.3
2018-07-04T09:19:30.072Z,25.3
2018-07-04T09:20:29.803Z,25.3
2018-07-04T09:21:00.354Z,25.3
2018-07-04T09:21:31.114Z,25.4
2018-07-04T09:22:01.745Z,25.4
2018-07-04T09:23:28.144Z,25.5
2018-07-04T09:24:27.564Z,25.5
2018-07-04T09:25:26.973Z,25.5
2018-07-04T09:26:26.855Z,25.6
2018-07-04T09:27:26.193Z,25.7
2018-07-04T09:28:25.309Z,25.7
2018-07-04T09:29:24.844Z,25.7
2018-07-04T09:30:24.684Z,25.8
2018-07-04T09:31:24.008Z,25.8
2018-07-04T09:32:23.528Z,25.8
2018-07-04T09:33:22.759Z,25.9
2018-07-04T09:34:22.484Z,25.9
2018-07-04T09:36:21.708Z,25.9
2018-07-04T09:37:20.928Z,25.9
2018-07-04T09:38:20.731Z,25.9
2018-07-04T09:39:20.273Z,25.9
2018-07-04T09:40:19.389Z,25.9
2018-07-04T09:41:19.229Z,25.9
2018-07-04T09:42:18.559Z,25.9
2018-07-04T09:43:18.281Z,25.9
2018-07-04T09:44:17.808Z,25.9
2018-07-04T09:45:17.249Z,26
2018-07-04T09:46:16.584Z,26.1
2018-07-04T09:47:16.017Z,26.2
2018-07-04T09:48:15.964Z,26.2
2018-07-04T09:49:15.193Z,26.4
2018-07-04T09:50:14.417Z,26.5
2018-07-04T09:51:14.247Z,26.5
2018-07-04T09:51:44.680Z,26.5
2018-07-04T09:52:15.318Z,26.5
2018-07-04T09:53:13.279Z,26.5
2018-07-04T09:53:43.702Z,26.5
2018-07-04T09:54:14.350Z,26.5
2018-07-04T09:54:44.936Z,26.5
2018-07-04T09:55:15.472Z,26.5
2018-07-04T09:55:46.119Z,26.5
2018-07-04T09:57:11.222Z,26.6
2018-07-04T09:58:11.174Z,26.6
2018-07-04T09:59:10.622Z,26.6
2018-07-04T10:00:09.841Z,26.6
2018-07-04T10:01:09.568Z,26.6
2018-07-04T10:02:08.895Z,26.7
2018-07-04T10:03:08.724Z,26.7
2018-07-04T10:03:39.153Z,26.7
2018-07-04T10:04:09.691Z,26.7
2018-07-04T10:04:40.225Z,26.7
2018-07-04T10:05:10.986Z,26.8
2018-07-04T10:05:41.327Z,26.8
2018-07-04T10:06:11.725Z,26.8
2018-07-04T10:06:41.976Z,26.8
2018-07-04T10:08:05.967Z,26.9
2018-07-04T10:09:05.799Z,26.9
2018-07-04T10:10:05.637Z,26.9
2018-07-04T10:11:04.646Z,26.9
2018-07-04T10:12:04.415Z,26.9
2018-07-04T10:13:04.245Z,26.9
2018-07-04T10:14:03.143Z,27
2018-07-04T10:15:03.097Z,27
2018-07-04T10:16:02.262Z,27.1
2018-07-04T10:17:01.990Z,27.1
2018-07-04T10:18:01.606Z,27.3
2018-07-04T10:20:00.631Z,27.3
2018-07-04T10:21:00.247Z,27.3
2018-07-04T10:22:00.187Z,27.4
2018-07-04T10:22:59.521Z,27.3
2018-07-04T10:23:58.741Z,27.2
2018-07-04T10:24:58.689Z,27.2
2018-07-04T10:25:57.904Z,27.2
2018-07-04T10:27:57.230Z,27.1
2018-07-04T10:28:56.959Z,27.2
2018-07-04T10:29:56.284Z,27.3
2018-07-04T10:30:55.762Z,27.3
2018-07-04T10:31:55.599Z,27.4
2018-07-04T10:32:54.830Z,27.4
2018-07-04T10:33:54.657Z,27.4
2018-07-04T10:34:54.176Z,27.4
2018-07-04T10:35:54.013Z,27.5
2018-07-04T10:36:53.345Z,27.6
2018-07-04T10:37:52.574Z,27.6
2018-07-04T10:38:52.249Z,27.6
2018-07-04T10:39:52.200Z,27.6
2018-07-04T10:40:51.535Z,27.6
2018-07-04T10:41:50.973Z,27.6
2018-07-04T10:42:50.810Z,27.6
2018-07-04T10:43:50.143Z,27.7
2018-07-04T10:44:50.236Z,27.7
2018-07-04T10:45:49.487Z,27.7
2018-07-04T10:46:48.818Z,27.8
2018-07-04T10:47:48.773Z,27.9
2018-07-04T10:48:48.103Z,28
2018-07-04T10:49:47.845Z,28
2018-07-04T10:50:47.672Z,28.1
2018-07-04T10:51:46.999Z,28.1
2018-07-04T10:52:46.725Z,28.2
2018-07-04T10:53:17.371Z,28.2
2018-07-04T10:53:47.910Z,28.2
2018-07-04T10:54:18.454Z,28.2
2018-07-04T10:55:45.362Z,28.3
2018-07-04T10:56:45.086Z,28.4
2018-07-04T10:57:44.518Z,28.4
2018-07-04T10:58:43.961Z,28.4
2018-07-04T10:59:43.904Z,28.4
2018-07-04T11:00:43.346Z,28.5
2018-07-04T11:01:42.677Z,28.3
2018-07-04T11:02:42.408Z,28.3
2018-07-04T11:03:42.253Z,28.4
2018-07-04T11:04:12.800Z,28.4
2018-07-04T11:04:43.235Z,28.4
2018-07-04T11:05:13.765Z,28.4
2018-07-04T11:05:44.301Z,28.4
2018-07-04T11:06:41.222Z,28.4
2018-07-04T11:07:40.741Z,28.6
2018-07-04T11:08:39.928Z,28.7
2018-07-04T11:10:39.548Z,28.7
2018-07-04T11:11:39.175Z,28.7
2018-07-04T11:12:38.504Z,28.9
2018-07-04T11:13:38.462Z,29.1
2018-07-04T11:14:37.895Z,28.9
2018-07-04T11:15:37.326Z,28.9
2018-07-04T11:16:37.162Z,28.9
2018-07-04T11:17:36.644Z,28.9
2018-07-04T11:18:36.488Z,29
2018-07-04T11:19:36.108Z,29.1
2018-07-04T11:20:35.439Z,29.1
2018-07-04T11:21:34.957Z,29
2018-07-04T11:22:35.023Z,28.9
2018-07-04T11:23:34.401Z,28.9
2018-07-04T11:25:33.515Z,29.2
2018-07-04T11:26:33.250Z,29.2
2018-07-04T11:27:32.978Z,29.3
2018-07-04T11:28:32.846Z,29.4
2018-07-04T11:30:31.821Z,29.3
2018-07-04T11:31:31.650Z,29.4
2018-07-04T11:32:31.477Z,29.4
2018-07-04T11:33:30.805Z,29.6
2018-07-04T11:34:30.535Z,29.6
2018-07-04T11:35:30.257Z,29.7
2018-07-04T11:36:29.984Z,29.8
2018-07-04T11:37:29.211Z,29.9
2018-07-04T11:38:29.353Z,29.9
2018-07-04T11:40:28.305Z,30
2018-07-04T11:41:28.022Z,30.2
2018-07-04T11:42:27.960Z,30.4
2018-07-04T11:43:27.394Z,30.3
2018-07-04T11:44:27.330Z,30.4
2018-07-04T11:45:26.769Z,30.3
2018-07-04T11:46:26.609Z,30.3
2018-07-04T11:47:26.126Z,30.3
2018-07-04T11:48:25.961Z,30.4
2018-07-04T11:49:25.432Z,30.2
2018-07-04T11:50:25.378Z,30.2
2018-07-04T11:51:24.992Z,30.3
2018-07-04T11:52:24.871Z,30.4
2018-07-04T11:53:24.308Z,30.5
2018-07-04T11:54:23.535Z,30.6
2018-07-04T11:55:23.878Z,30.9
2018-07-04T11:56:23.216Z,31
2018-07-04T11:57:23.026Z,31.2
2018-07-04T11:58:22.754Z,31.2
2018-07-04T11:59:22.577Z,31.2
2018-07-04T12:00:22.301Z,31.4
2018-07-04T12:01:21.628Z,31.4
2018-07-04T12:02:21.578Z,31.2
2018-07-04T12:03:21.014Z,30.8
2018-07-04T12:04:20.865Z,30.7
2018-07-04T12:05:20.962Z,30.8
2018-07-04T12:06:20.315Z,31.1
2018-07-04T12:07:19.934Z,31.3
2018-07-04T12:08:19.881Z,31.4
2018-07-04T12:09:19.716Z,31.5
2018-07-04T12:09:49.966Z,31.5
2018-07-04T12:10:20.222Z,31.7
2018-07-04T12:10:50.569Z,31.7
2018-07-04T12:11:20.721Z,31.9
2018-07-04T12:12:18.650Z,32
2018-07-04T12:13:18.371Z,32
2018-07-04T12:14:18.201Z,32
2018-07-04T12:15:17.932Z,32
2018-07-04T12:16:17.758Z,32.1
2018-07-04T12:17:16.984Z,32.3
2018-07-04T12:18:16.817Z,32.4
2018-07-04T12:19:16.537Z,32.6
2018-07-04T12:20:16.477Z,32.6
2018-07-04T12:20:46.759Z,32.6
2018-07-04T12:21:16.982Z,32.5
2018-07-04T12:21:47.509Z,32.5
2018-07-04T12:22:18.151Z,32.5
2018-07-04T12:22:48.409Z,32.5
2018-07-04T12:23:18.654Z,32.6
2018-07-04T12:23:49.191Z,32.6
2018-07-04T12:24:19.831Z,32.6
2018-07-04T12:25:14.920Z,31.9
2018-07-04T12:26:15.038Z,31.1
2018-07-04T12:27:14.869Z,31.4
2018-07-04T12:28:14.593Z,31.5
2018-07-04T12:29:14.031Z,31.6
2018-07-04T12:30:13.870Z,31.4
2018-07-04T12:31:13.714Z,31.6
2018-07-04T12:32:13.656Z,31.7
2018-07-04T12:33:13.092Z,31.8
2018-07-04T12:33:43.623Z,31.8
2018-07-04T12:34:14.276Z,31.7
2018-07-04T12:36:12.392Z,31.7
2018-07-04T12:37:12.118Z,31.9
2018-07-04T12:38:11.960Z,31.7
2018-07-04T12:39:11.792Z,31.7
2018-07-04T12:40:11.625Z,31.7
2018-07-04T12:41:11.458Z,31.7
2018-07-04T12:42:10.895Z,31.9
2018-07-04T12:43:10.626Z,32
2018-07-04T12:44:10.465Z,31.8
2018-07-04T12:45:10.308Z,31.9
2018-07-04T12:46:10.040Z,32.1
2018-07-04T12:47:10.372Z,32.2
2018-07-04T12:48:09.649Z,32.2
2018-07-04T12:49:09.590Z,32.3
2018-07-04T12:50:09.215Z,32
2018-07-04T12:51:09.147Z,31.6
2018-07-04T12:52:08.664Z,31.7